Main page
METAR-TAF:

METAR-TAF

Airports :

Bournemouth Airport

Bournemouth, England

latitude: 50-47N, longitude: 001-50W, elevation: 11 m

Current weather observation

The report was made 2 hours and 5 minutes ago, at 21:20 UTC
Wind 2 kt from the East/Northeast
Temperature 13°C
Humidity 77%
Pressure 1001 hPa
Visibility 10 km or more
no clouds below 1500 m and no cumulonimbus

METAR: EGHH 222120Z 07002KT CAVOK 13/09 Q1001

Time: 00:25 (23:25 UTC)

Forecast

The report was made 1 hour and 29 minutes ago, at 21:56 UTC
Forecast valid from 22 at 21 UTC to 22 at 24 UTC
Wind 5 kt from the Southeast
Visibility 10 km or more
no clouds below 1500 m and no cumulonimbus
Probability 30% :
Temporary
from 22 at 21 UTC to 22 at 24 UTC
Visibility: 4000 m
haze

TAF: EGHH 222156Z 2221/2224 13005KT CAVOK PROB30 TEMPO 2221/2224 4000 HZ

Weather observations and forecasts of more than 4000 airports (METAR and TAF reports).

The available stations are represented by yellow and red dots on the map.

Hover mouse over dot to see the name of the station.

Then click to see weather observations and forecasts.

To change the map : click on the green buttons with a black cross to zoom in, on the green button with a dash to zoom out, or on the green arrows for adjacent maps.


METAR-TAF: